Time;durP1;ratioP1;P1;durP2;ratioP2;P2;SDS_P1;SDS_P2;PMS_P1;PMS_P2;Temp;Humidity;BMP_temperature;BMP_pressure;BME280_temperature;BME280_humidity;BME280_pressure;Samples;Min_cycle;Max_cycle;Signal;HPM_P1;HPM_P2
2023/01/28 00:01:08;;;;;;;3.17;2.73;;;5.80;99.90;;;;;;5003679;28;20217;-65
2023/01/28 00:03:34;;;;;;;2.97;2.60;;;5.70;99.90;;;;;;4996081;28;20266;-65
2023/01/28 00:06:05;;;;;;;3.03;2.73;;;5.70;99.90;;;;;;5012678;28;20202;-66
2023/01/28 00:08:32;;;;;;;3.87;2.73;;;5.70;99.90;;;;;;5001147;28;20249;-65
2023/01/28 00:10:59;;;;;;;2.50;2.30;;;5.60;99.90;;;;;;5014635;28;20220;-65
2023/01/28 00:13:26;;;;;;;3.07;2.70;;;5.60;99.90;;;;;;5011933;28;20192;-65
2023/01/28 00:15:56;;;;;;;4.00;2.97;;;5.70;99.90;;;;;;5011577;28;20183;-65
2023/01/28 00:18:24;;;;;;;3.20;2.60;;;5.70;99.90;;;;;;5012026;28;20269;-65
2023/01/28 00:21:09;;;;;;;3.50;2.87;;;5.70;99.90;;;;;;5007348;28;20182;-65
2023/01/28 00:23:37;;;;;;;3.60;2.90;;;5.70;99.90;;;;;;5008212;28;20174;-64
2023/01/28 00:26:10;;;;;;;3.00;2.70;;;5.70;99.90;;;;;;5009693;28;20289;-65
2023/01/28 00:28:38;;;;;;;2.90;2.60;;;5.70;99.90;;;;;;5008086;28;20199;-65
2023/01/28 00:31:10;;;;;;;3.00;2.50;;;5.60;99.90;;;;;;5013937;28;20170;-65
2023/01/28 00:33:38;;;;;;;2.80;2.60;;;5.60;99.90;;;;;;5007094;28;20173;-65
2023/01/28 00:36:05;;;;;;;2.70;2.37;;;5.70;99.90;;;;;;5014070;28;20211;-65
2023/01/28 00:38:31;;;;;;;2.90;2.47;;;5.60;99.90;;;;;;5008502;28;20183;-65
2023/01/28 00:41:09;;;;;;;3.70;2.30;;;5.50;99.90;;;;;;5014372;28;20189;-65
2023/01/28 00:43:36;;;;;;;2.60;2.40;;;5.50;99.90;;;;;;5013266;28;20206;-64
2023/01/28 00:46:03;;;;;;;2.80;2.43;;;5.50;99.90;;;;;;5000474;28;20259;-65
2023/01/28 00:48:32;;;;;;;2.53;2.10;;;5.50;99.90;;;;;;5011614;28;20174;-64
2023/01/28 00:50:57;;;;;;;2.33;2.13;;;5.50;99.90;;;;;;5005514;28;20178;-65
2023/01/28 00:53:23;;;;;;;2.43;2.23;;;5.50;99.90;;;;;;5010992;28;20277;-65
2023/01/28 00:55:48;;;;;;;2.37;2.17;;;5.50;99.90;;;;;;5013923;28;20207;-65
2023/01/28 00:58:14;;;;;;;2.57;2.23;;;5.40;99.90;;;;;;5010789;28;20375;-65
2023/01/28 01:00:42;;;;;;;2.27;2.07;;;5.40;99.90;;;;;;5009413;28;20174;-65
2023/01/28 01:03:07;;;;;;;2.60;2.20;;;5.40;99.90;;;;;;5013791;28;20202;-64
2023/01/28 01:05:33;;;;;;;2.17;1.90;;;5.40;99.90;;;;;;5009540;28;20278;-65
2023/01/28 01:07:59;;;;;;;2.43;2.23;;;5.40;99.90;;;;;;5013110;28;20193;-65
2023/01/28 01:10:25;;;;;;;2.70;2.23;;;5.30;99.90;;;;;;5005367;28;20199;-65
2023/01/28 01:12:51;;;;;;;2.53;2.20;;;5.30;99.90;;;;;;5009554;28;20183;-65
2023/01/28 01:15:18;;;;;;;2.60;2.27;;;5.30;99.90;;;;;;4996012;28;20270;-65
2023/01/28 01:17:47;;;;;;;2.60;2.40;;;5.20;99.90;;;;;;5000905;28;20206;-65
2023/01/28 01:20:25;;;;;;;2.23;2.03;;;5.20;99.90;;;;;;5011716;28;21553;-65
2023/01/28 01:22:50;;;;;;;2.50;2.27;;;5.10;99.90;;;;;;5004498;28;20182;-64
2023/01/28 01:25:19;;;;;;;2.97;2.53;;;5.10;99.90;;;;;;5010193;28;20455;-65
2023/01/28 01:27:48;;;;;;;2.50;2.30;;;5.10;99.90;;;;;;5011287;28;20166;-65
2023/01/28 01:30:16;;;;;;;2.77;2.30;;;5.10;99.90;;;;;;5014083;28;20189;-64
2023/01/28 01:32:42;;;;;;;2.97;2.40;;;5.00;99.90;;;;;;5007239;28;20175;-65
2023/01/28 01:35:09;;;;;;;2.37;2.17;;;4.90;99.90;;;;;;5008262;28;20187;-65
2023/01/28 01:37:36;;;;;;;2.80;2.33;;;4.90;99.90;;;;;;5005676;28;20249;-65
2023/01/28 01:40:03;;;;;;;3.40;2.80;;;4.90;99.90;;;;;;5010597;28;20182;-64
2023/01/28 01:42:32;;;;;;;3.20;2.80;;;4.80;99.90;;;;;;5006899;28;20182;-65
2023/01/28 01:45:04;;;;;;;4.60;2.80;;;4.70;99.90;;;;;;4997386;28;20295;-65
2023/01/28 01:47:33;;;;;;;3.23;2.70;;;4.70;99.90;;;;;;4994596;28;20183;-64
2023/01/28 01:50:06;;;;;;;3.00;2.50;;;4.70;99.90;;;;;;5029238;28;20181;-65
2023/01/28 01:52:34;;;;;;;3.03;2.50;;;4.70;99.90;;;;;;5010337;28;20225;-64
2023/01/28 01:55:03;;;;;;;3.10;2.70;;;4.60;99.90;;;;;;5005731;28;20183;-65
2023/01/28 01:57:33;;;;;;;2.93;2.60;;;4.60;99.90;;;;;;5013052;28;20174;-65
2023/01/28 02:00:07;;;;;;;3.57;2.67;;;4.60;99.90;;;;;;5012845;28;20210;-65
2023/01/28 02:02:39;;;;;;;3.30;2.77;;;4.60;99.90;;;;;;5010362;28;20238;-65
2023/01/28 02:05:09;;;;;;;3.43;3.10;;;4.60;99.90;;;;;;5012062;28;20252;-65
2023/01/28 02:07:38;;;;;;;3.40;3.03;;;4.50;99.90;;;;;;5011853;28;20232;-64
2023/01/28 02:10:07;;;;;;;4.13;3.20;;;4.60;99.90;;;;;;5011533;28;20186;-64
2023/01/28 02:12:39;;;;;;;3.40;2.53;;;4.50;99.90;;;;;;5007432;28;20517;-66
2023/01/28 02:15:08;;;;;;;4.40;3.27;;;4.50;99.90;;;;;;5008925;28;20241;-65
2023/01/28 02:17:35;;;;;;;3.53;2.90;;;4.40;99.90;;;;;;5021661;28;20179;-65
2023/01/28 02:20:09;;;;;;;3.03;2.73;;;4.40;99.90;;;;;;5011418;28;20203;-65
2023/01/28 02:23:11;;;;;;;3.50;2.97;;;4.40;99.90;;;;;;5008705;28;20210;-65
2023/01/28 02:26:11;;;;;;;3.17;2.77;;;4.40;99.90;;;;;;5014645;28;20292;-64
2023/01/28 02:28:50;;;;;;;3.33;3.00;;;4.40;99.90;;;;;;5009529;28;20198;-65
2023/01/28 02:31:27;;;;;;;3.90;3.10;;;4.30;99.90;;;;;;5009259;28;20176;-64
2023/01/28 02:33:59;;;;;;;3.63;3.07;;;4.30;99.90;;;;;;5010663;28;20229;-64
2023/01/28 02:36:54;;;;;;;3.47;2.87;;;4.30;99.90;;;;;;5014752;28;20187;-65
2023/01/28 02:39:27;;;;;;;3.20;2.87;;;4.30;99.90;;;;;;5024542;28;20183;-65
2023/01/28 02:41:57;;;;;;;3.97;3.30;;;4.20;99.90;;;;;;5011858;28;20195;-65
2023/01/28 02:44:23;;;;;;;4.20;3.20;;;4.20;99.90;;;;;;5004297;28;20183;-65
2023/01/28 02:49:48;;;;;;;5.23;3.30;;;4.20;99.90;;;;;;5008994;28;20218;-65
2023/01/28 02:56:08;;;;;;;4.37;3.20;;;4.20;99.90;;;;;;5011254;28;20287;-65
2023/01/28 02:58:43;;;;;;;3.30;2.93;;;4.20;99.90;;;;;;4914661;28;20205;-65
2023/01/28 03:01:29;;;;;;;3.90;3.20;;;4.20;99.90;;;;;;5011865;28;20189;-65
2023/01/28 03:04:09;;;;;;;3.37;2.97;;;4.20;99.90;;;;;;5007329;28;20178;-66
2023/01/28 03:06:44;;;;;;;3.70;2.90;;;4.20;99.90;;;;;;5000755;28;20190;-65
2023/01/28 03:09:25;;;;;;;3.70;3.10;;;4.10;99.90;;;;;;4999172;28;20229;-67
2023/01/28 03:37:42;;;;;;;4.87;3.83;;;4.10;99.90;;;;;;5015407;28;20288;-65
2023/01/28 03:40:13;;;;;;;4.73;3.57;;;4.10;99.90;;;;;;5015540;28;20190;-65
2023/01/28 03:42:38;;;;;;;4.73;3.50;;;4.00;99.90;;;;;;5004503;28;20189;-65
2023/01/28 03:45:07;;;;;;;5.03;4.00;;;4.00;99.90;;;;;;5009001;28;20207;-65
2023/01/28 03:47:33;;;;;;;4.87;4.20;;;4.00;99.90;;;;;;5012787;28;20244;-65
2023/01/28 03:50:01;;;;;;;5.50;4.40;;;4.00;99.90;;;;;;5015164;28;20182;-65
2023/01/28 03:52:31;;;;;;;4.87;4.07;;;4.00;99.90;;;;;;5010825;28;20190;-65
2023/01/28 03:54:59;;;;;;;5.57;4.50;;;4.00;99.90;;;;;;5003792;28;20175;-65
2023/01/28 03:57:30;;;;;;;5.13;4.30;;;3.90;99.90;;;;;;5004946;28;20238;-65
2023/01/28 03:59:58;;;;;;;5.23;4.43;;;3.90;99.90;;;;;;5024275;28;20195;-65
2023/01/28 04:02:25;;;;;;;6.80;4.33;;;3.90;99.90;;;;;;5005975;28;20178;-65
2023/01/28 04:04:51;;;;;;;6.27;4.73;;;3.90;99.90;;;;;;5005975;28;20294;-65
2023/01/28 04:07:16;;;;;;;4.90;4.20;;;3.90;99.90;;;;;;5015198;28;20266;-65
2023/01/28 04:09:45;;;;;;;5.70;4.53;;;3.90;99.90;;;;;;5007907;28;20274;-65
2023/01/28 04:12:18;;;;;;;5.73;4.90;;;3.90;99.90;;;;;;5013900;28;20269;-64
2023/01/28 04:14:43;;;;;;;5.00;4.20;;;3.80;99.90;;;;;;5010823;28;20175;-65
2023/01/28 04:17:09;;;;;;;5.27;4.40;;;3.80;99.90;;;;;;5007009;28;20199;-65
2023/01/28 04:19:36;;;;;;;5.13;4.57;;;3.80;99.90;;;;;;5002085;28;20179;-65
2023/01/28 04:22:03;;;;;;;5.57;4.43;;;3.80;99.90;;;;;;5010622;28;20447;-64
2023/01/28 04:24:29;;;;;;;6.27;5.03;;;3.80;99.90;;;;;;5008484;28;20175;-64
2023/01/28 04:26:55;;;;;;;5.43;4.70;;;3.70;99.90;;;;;;5009258;28;20198;-64
2023/01/28 04:29:22;;;;;;;5.40;4.37;;;3.70;99.90;;;;;;5006164;28;20190;-65
2023/01/28 04:31:53;;;;;;;6.67;4.63;;;3.70;99.90;;;;;;5007888;28;20183;-65
2023/01/28 04:34:19;;;;;;;5.13;4.63;;;3.70;99.90;;;;;;5007142;28;20207;-65
2023/01/28 04:36:45;;;;;;;5.97;5.00;;;3.70;99.90;;;;;;5009270;28;20167;-65
2023/01/28 04:39:10;;;;;;;7.37;5.33;;;3.70;99.90;;;;;;5010799;28;20287;-65
2023/01/28 04:41:36;;;;;;;5.40;4.87;;;3.70;99.90;;;;;;4999183;28;20524;-65
2023/01/28 04:44:02;;;;;;;6.40;5.63;;;3.60;99.90;;;;;;5011236;28;20178;-65
2023/01/28 04:46:29;;;;;;;6.87;5.40;;;3.60;99.90;;;;;;5014242;28;20245;-65
2023/01/28 04:48:55;;;;;;;6.20;4.80;;;3.60;99.90;;;;;;5005489;28;20195;-64
2023/01/28 04:51:23;;;;;;;9.93;5.70;;;3.60;99.90;;;;;;5018413;28;20186;-65
2023/01/28 04:53:48;;;;;;;5.60;5.00;;;3.50;99.90;;;;;;5007956;28;20248;-65
2023/01/28 04:56:16;;;;;;;6.53;5.27;;;3.50;99.90;;;;;;5006735;28;20170;-65
2023/01/28 04:58:42;;;;;;;6.00;5.07;;;3.50;99.90;;;;;;5007297;28;20183;-65
2023/01/28 05:01:08;;;;;;;6.63;5.23;;;3.50;99.90;;;;;;5014148;28;20178;-65
2023/01/28 05:03:34;;;;;;;6.87;5.47;;;3.50;99.90;;;;;;5013967;28;20222;-65
2023/01/28 05:06:00;;;;;;;5.70;4.90;;;3.50;99.90;;;;;;5003384;28;20206;-65
2023/01/28 05:08:25;;;;;;;9.23;5.70;;;3.50;99.90;;;;;;5007531;28;20186;-65
2023/01/28 05:10:58;;;;;;;6.77;5.40;;;3.50;99.90;;;;;;5008415;28;20191;-65
2023/01/28 05:13:24;;;;;;;6.00;5.33;;;3.50;99.90;;;;;;5010004;28;20190;-65
2023/01/28 05:15:52;;;;;;;6.27;5.23;;;3.50;99.90;;;;;;5010910;28;20177;-65
2023/01/28 05:18:20;;;;;;;6.90;5.27;;;3.50;99.90;;;;;;5006303;28;20193;-65
2023/01/28 05:20:46;;;;;;;6.23;5.43;;;3.50;99.90;;;;;;5009714;28;20183;-66
2023/01/28 05:23:14;;;;;;;7.03;5.40;;;3.50;99.90;;;;;;5011379;28;20178;-64
2023/01/28 05:25:40;;;;;;;6.00;4.90;;;3.50;99.90;;;;;;5004513;28;20190;-65
2023/01/28 05:28:05;;;;;;;5.30;4.70;;;3.50;99.90;;;;;;5013607;28;20236;-65
2023/01/28 05:30:31;;;;;;;5.90;4.90;;;3.50;99.90;;;;;;5015617;28;20199;-65
2023/01/28 05:32:59;;;;;;;5.17;4.67;;;3.50;99.90;;;;;;5013445;28;20168;-65
2023/01/28 05:35:27;;;;;;;5.27;4.50;;;3.50;99.90;;;;;;5008432;28;20178;-65
2023/01/28 05:37:54;;;;;;;6.93;5.07;;;3.50;99.90;;;;;;5012290;28;20237;-65
2023/01/28 05:40:21;;;;;;;5.20;4.57;;;3.60;99.90;;;;;;5004457;28;20179;-65
2023/01/28 05:42:46;;;;;;;5.57;4.63;;;3.50;99.90;;;;;;5007486;28;20183;-65
2023/01/28 05:45:12;;;;;;;5.07;4.53;;;3.50;99.90;;;;;;5012311;28;20277;-65
2023/01/28 05:47:38;;;;;;;5.13;4.53;;;3.50;99.90;;;;;;5005382;28;20289;-65
2023/01/28 05:50:05;;;;;;;5.03;4.53;;;3.50;99.90;;;;;;5008694;28;20179;-65
2023/01/28 05:52:31;;;;;;;5.20;4.57;;;3.50;99.90;;;;;;5010003;28;20215;-65
2023/01/28 05:55:01;;;;;;;5.20;4.50;;;3.60;99.90;;;;;;5009150;28;20245;-65
2023/01/28 05:57:27;;;;;;;5.20;4.30;;;3.60;99.90;;;;;;5003952;28;20198;-65
2023/01/28 05:59:53;;;;;;;4.40;4.00;;;3.60;99.90;;;;;;5010338;28;20246;-65
2023/01/28 06:02:18;;;;;;;5.27;4.30;;;3.60;99.90;;;;;;5002232;28;20195;-65
2023/01/28 06:04:44;;;;;;;4.40;4.00;;;3.60;99.90;;;;;;5009257;28;20206;-65
2023/01/28 06:07:12;;;;;;;4.63;4.07;;;3.70;99.90;;;;;;5015143;28;20194;-65
2023/01/28 06:09:38;;;;;;;5.03;4.30;;;3.60;99.90;;;;;;5015878;28;20186;-65
2023/01/28 06:12:04;;;;;;;4.53;4.13;;;3.60;99.90;;;;;;5013000;28;20200;-65
2023/01/28 06:14:32;;;;;;;4.77;4.27;;;3.60;99.90;;;;;;5013376;28;20184;-65
2023/01/28 06:16:58;;;;;;;5.50;4.13;;;3.60;99.90;;;;;;5015511;28;20197;-65
2023/01/28 06:19:24;;;;;;;5.57;4.10;;;3.70;99.90;;;;;;5014141;28;20182;-65
2023/01/28 06:21:51;;;;;;;4.73;4.23;;;3.70;99.90;;;;;;5016680;28;20197;-65
2023/01/28 06:24:22;;;;;;;4.43;3.93;;;3.70;99.90;;;;;;5012206;28;20214;-65
2023/01/28 06:26:47;;;;;;;4.53;3.93;;;3.70;99.90;;;;;;5012493;28;20206;-65
2023/01/28 06:29:13;;;;;;;4.50;4.03;;;3.60;99.90;;;;;;5004006;28;20175;-65
2023/01/28 06:31:38;;;;;;;5.00;3.73;;;3.70;99.90;;;;;;5009235;28;20199;-65
2023/01/28 06:34:08;;;;;;;4.10;3.70;;;3.70;99.90;;;;;;5012898;28;20759;-65
2023/01/28 06:36:39;;;;;;;4.40;3.90;;;3.70;99.90;;;;;;5003376;28;20437;-65
2023/01/28 06:39:07;;;;;;;5.10;4.57;;;3.70;99.90;;;;;;5020401;28;20216;-65
2023/01/28 06:41:35;;;;;;;4.23;3.83;;;3.70;99.90;;;;;;5012846;28;20244;-65
2023/01/28 06:44:03;;;;;;;4.53;4.13;;;3.70;99.90;;;;;;5011836;28;20214;-65
2023/01/28 06:46:28;;;;;;;4.20;3.80;;;3.70;99.90;;;;;;5011113;28;20370;-65
2023/01/28 06:48:59;;;;;;;4.80;4.20;;;3.70;99.90;;;;;;5015626;28;20316;-65
2023/01/28 06:51:24;;;;;;;4.33;3.90;;;3.70;99.90;;;;;;4975715;28;1118181;-65
2023/01/28 06:53:52;;;;;;;4.63;4.00;;;3.70;99.90;;;;;;5005168;28;20167;-65
2023/01/28 06:56:20;;;;;;;4.30;3.63;;;3.60;99.90;;;;;;5012881;28;20274;-64
2023/01/28 06:58:46;;;;;;;5.37;4.13;;;3.60;99.90;;;;;;5014368;28;20193;-64
2023/01/28 07:01:12;;;;;;;4.33;3.80;;;3.60;99.90;;;;;;5009564;28;20179;-65
2023/01/28 07:03:37;;;;;;;4.50;3.93;;;3.70;99.90;;;;;;5006031;28;20225;-64
2023/01/28 07:06:03;;;;;;;4.73;3.70;;;3.70;99.90;;;;;;5006442;28;20206;-65
2023/01/28 07:08:33;;;;;;;3.73;3.33;;;3.70;99.90;;;;;;5013452;28;20193;-65
2023/01/28 07:11:02;;;;;;;4.10;3.70;;;3.70;99.90;;;;;;5009610;28;20254;-65
2023/01/28 07:13:28;;;;;;;3.97;3.57;;;3.70;99.90;;;;;;5014581;28;20203;-64
2023/01/28 07:15:54;;;;;;;3.77;3.47;;;3.70;99.90;;;;;;5013673;28;20230;-65
2023/01/28 07:18:19;;;;;;;4.20;3.63;;;3.70;99.90;;;;;;5004994;28;20176;-65
2023/01/28 07:20:47;;;;;;;4.10;3.50;;;3.80;99.90;;;;;;5011256;28;20179;-65
2023/01/28 07:23:13;;;;;;;4.60;4.03;;;3.70;99.90;;;;;;4999622;28;20772;-64
2023/01/28 07:25:38;;;;;;;4.03;3.53;;;3.80;99.90;;;;;;5012059;28;20215;-65
2023/01/28 07:28:10;;;;;;;4.43;3.87;;;3.80;99.90;;;;;;5003918;28;20178;-64
2023/01/28 07:30:40;;;;;;;5.27;4.43;;;3.80;99.90;;;;;;5012480;28;20175;-65
2023/01/28 07:33:08;;;;;;;5.57;4.17;;;3.80;99.90;;;;;;5008535;28;20376;-65
2023/01/28 07:35:34;;;;;;;5.43;4.23;;;3.90;99.90;;;;;;5013781;28;20260;-65
2023/01/28 07:38:00;;;;;;;4.27;3.73;;;3.90;99.90;;;;;;5014523;28;20221;-65
2023/01/28 07:40:27;;;;;;;4.53;3.70;;;3.80;99.90;;;;;;5006568;28;20210;-64
2023/01/28 07:42:55;;;;;;;4.57;3.83;;;3.90;99.90;;;;;;5004939;28;20294;-66
2023/01/28 07:45:21;;;;;;;6.23;4.30;;;3.90;99.90;;;;;;4996519;28;20289;-64
2023/01/28 07:47:54;;;;;;;4.27;3.80;;;3.90;99.90;;;;;;5011770;28;20197;-65
2023/01/28 07:50:20;;;;;;;4.20;3.47;;;3.90;99.90;;;;;;5014758;28;20209;-65
2023/01/28 07:52:48;;;;;;;3.97;3.57;;;3.90;99.90;;;;;;5010880;28;20194;-66
2023/01/28 07:55:14;;;;;;;4.30;3.53;;;3.90;99.90;;;;;;5008920;28;20214;-64
2023/01/28 07:57:56;;;;;;;6.00;4.37;;;3.90;99.90;;;;;;5006221;28;20373;-66
2023/01/28 08:00:23;;;;;;;5.13;4.40;;;4.00;99.90;;;;;;5005141;28;20412;-64
2023/01/28 08:02:50;;;;;;;5.70;4.63;;;4.00;99.90;;;;;;5006306;28;20206;-66
2023/01/28 08:05:17;;;;;;;5.23;4.10;;;3.90;99.90;;;;;;5011595;28;20211;-66
2023/01/28 08:07:44;;;;;;;5.53;4.27;;;4.00;99.90;;;;;;5007761;28;20179;-65
2023/01/28 08:10:11;;;;;;;5.17;4.47;;;4.00;99.90;;;;;;5012337;28;20186;-64
2023/01/28 08:12:37;;;;;;;5.33;4.50;;;4.00;99.90;;;;;;5005306;28;20237;-63
2023/01/28 08:15:04;;;;;;;5.70;5.10;;;4.10;99.90;;;;;;5012618;28;20214;-66
2023/01/28 08:17:30;;;;;;;5.23;4.60;;;4.10;99.90;;;;;;5008500;28;20197;-66
2023/01/28 08:19:56;;;;;;;5.93;4.67;;;4.00;99.90;;;;;;5009407;28;20222;-65
2023/01/28 08:22:26;;;;;;;7.10;5.43;;;4.10;99.90;;;;;;5011499;28;20249;-65
2023/01/28 08:24:53;;;;;;;6.83;5.53;;;4.10;99.90;;;;;;5014003;28;20190;-65
2023/01/28 08:27:19;;;;;;;5.67;4.67;;;4.10;99.90;;;;;;5011944;28;20197;-66
2023/01/28 08:29:45;;;;;;;4.67;3.83;;;4.20;99.90;;;;;;5011328;28;20198;-66
2023/01/28 08:32:12;;;;;;;5.77;4.63;;;4.20;99.90;;;;;;5009245;28;20241;-66
2023/01/28 08:34:38;;;;;;;5.50;4.47;;;4.10;99.90;;;;;;5004003;28;20190;-66
2023/01/28 08:37:08;;;;;;;5.93;5.33;;;4.20;99.90;;;;;;5007147;28;20213;-65
2023/01/28 08:39:34;;;;;;;6.03;5.10;;;4.20;99.90;;;;;;5021207;28;20181;-66
2023/01/28 08:42:04;;;;;;;6.00;4.60;;;4.20;99.90;;;;;;5014693;28;20182;-67
2023/01/28 08:44:32;;;;;;;5.20;4.33;;;4.20;99.90;;;;;;5009801;28;20207;-65
2023/01/28 08:47:00;;;;;;;4.43;4.03;;;4.20;99.90;;;;;;5003021;28;20209;-62
2023/01/28 08:49:26;;;;;;;5.33;4.47;;;4.30;99.90;;;;;;5011308;28;20187;-66
2023/01/28 08:51:56;;;;;;;5.27;4.47;;;4.30;99.90;;;;;;5014669;28;20211;-66
2023/01/28 08:54:22;;;;;;;4.53;4.13;;;4.30;99.90;;;;;;5014717;28;20197;-66
2023/01/28 08:56:50;;;;;;;4.80;4.27;;;4.30;99.90;;;;;;5008761;28;20199;-67
2023/01/28 08:59:19;;;;;;;5.03;4.23;;;4.30;99.90;;;;;;5005799;28;20244;-66
2023/01/28 09:01:47;;;;;;;4.90;4.00;;;4.30;99.90;;;;;;5007588;28;20522;-62
2023/01/28 09:04:12;;;;;;;4.53;3.90;;;4.30;99.90;;;;;;5010363;28;20261;-64
2023/01/28 09:06:38;;;;;;;4.00;3.60;;;4.30;99.90;;;;;;5009429;28;20368;-65
2023/01/28 09:09:04;;;;;;;4.30;3.77;;;4.30;99.90;;;;;;5008637;28;20242;-65
2023/01/28 09:11:32;;;;;;;5.90;5.30;;;4.40;99.90;;;;;;5010571;28;20205;-66
2023/01/28 09:13:58;;;;;;;5.93;4.53;;;4.30;99.90;;;;;;5012836;28;20179;-62
2023/01/28 09:16:25;;;;;;;5.33;4.33;;;4.30;99.90;;;;;;5005790;28;20269;-68
2023/01/28 09:18:51;;;;;;;4.73;4.27;;;4.40;99.90;;;;;;5001773;28;20183;-63
2023/01/28 09:21:17;;;;;;;4.67;4.13;;;4.40;99.90;;;;;;5002770;28;20190;-64
2023/01/28 09:23:42;;;;;;;4.60;4.20;;;4.40;99.90;;;;;;5011468;28;20268;-63
2023/01/28 09:26:10;;;;;;;4.70;4.20;;;4.40;99.90;;;;;;5005093;28;20207;-66
2023/01/28 09:28:37;;;;;;;5.10;4.60;;;4.40;99.90;;;;;;4998364;28;20442;-66
2023/01/28 09:31:06;;;;;;;5.10;4.23;;;4.40;99.90;;;;;;5006778;28;20199;-66
2023/01/28 09:33:38;;;;;;;4.93;4.13;;;4.40;99.90;;;;;;5016442;28;20174;-66
2023/01/28 09:36:05;;;;;;;5.20;4.03;;;4.40;99.90;;;;;;5007010;28;20248;-66
2023/01/28 09:38:33;;;;;;;5.47;4.87;;;4.30;99.90;;;;;;5005211;28;20182;-66
2023/01/28 09:41:02;;;;;;;4.73;4.23;;;4.30;99.90;;;;;;5009842;28;20219;-66
2023/01/28 09:43:45;;;;;;;4.30;3.90;;;4.30;99.90;;;;;;5008548;28;20187;-65
2023/01/28 09:46:14;;;;;;;4.80;4.00;;;4.30;99.90;;;;;;5005941;28;20550;-66
2023/01/28 09:48:46;;;;;;;4.70;4.20;;;4.30;99.90;;;;;;5014263;28;20179;-64
2023/01/28 09:51:38;;;;;;;4.93;4.07;;;4.40;99.90;;;;;;5017582;28;20256;-67
2023/01/28 09:54:33;;;;;;;4.10;3.70;;;4.30;99.90;;;;;;5015629;28;20198;-64
2023/01/28 09:57:27;;;;;;;4.27;3.63;;;4.30;99.90;;;;;;5013556;28;20195;-66
2023/01/28 09:59:55;;;;;;;5.10;4.40;;;4.30;99.90;;;;;;5026401;28;20182;-66
2023/01/28 10:02:27;;;;;;;4.40;4.00;;;4.40;99.90;;;;;;5012286;28;20175;-67
2023/01/28 10:05:10;;;;;;;4.50;4.10;;;4.30;99.90;;;;;;5013858;28;20224;-66
2023/01/28 10:08:01;;;;;;;4.37;3.93;;;4.30;99.90;;;;;;5008234;28;20179;-64
2023/01/28 10:11:14;;;;;;;4.93;3.80;;;4.30;99.90;;;;;;5015205;28;20207;-66
2023/01/28 10:13:49;;;;;;;5.43;4.57;;;4.30;99.90;;;;;;4920690;29;20201;-67
2023/01/28 10:16:33;;;;;;;4.23;3.83;;;4.30;99.90;;;;;;4996855;28;20194;-65
2023/01/28 10:19:12;;;;;;;4.27;3.87;;;4.30;99.90;;;;;;5013453;28;20238;-62
2023/01/28 10:21:46;;;;;;;4.23;3.83;;;4.30;99.90;;;;;;5014457;28;20182;-66
2023/01/28 10:24:35;;;;;;;4.60;4.03;;;4.30;99.90;;;;;;5012920;28;20207;-66
2023/01/28 10:27:02;;;;;;;4.10;3.70;;;4.30;99.90;;;;;;5027036;28;20232;-67
2023/01/28 10:29:38;;;;;;;4.23;3.83;;;4.30;99.90;;;;;;5004876;28;20175;-67
2023/01/28 10:32:29;;;;;;;4.40;4.00;;;4.40;99.90;;;;;;5015393;28;20305;-67
2023/01/28 10:34:58;;;;;;;4.20;3.77;;;4.30;99.90;;;;;;5027539;28;20180;-65
2023/01/28 10:37:24;;;;;;;5.37;3.90;;;4.30;99.90;;;;;;5008023;28;20273;-66
2023/01/28 10:39:54;;;;;;;3.70;3.40;;;4.30;99.90;;;;;;5014532;28;20260;-67
2023/01/28 10:42:30;;;;;;;4.47;3.93;;;4.40;99.90;;;;;;5025038;28;20182;-66
2023/01/28 10:45:02;;;;;;;4.07;3.67;;;4.40;99.90;;;;;;5012442;28;20195;-67
2023/01/28 10:48:00;;;;;;;4.70;3.77;;;4.40;99.90;;;;;;5015764;28;20244;-67
2023/01/28 10:50:28;;;;;;;4.00;3.60;;;4.40;99.90;;;;;;4975243;28;20191;-67
2023/01/28 10:52:59;;;;;;;4.17;3.73;;;4.40;99.90;;;;;;5014927;28;20269;-63
2023/01/28 10:55:32;;;;;;;4.40;3.50;;;4.40;99.90;;;;;;5016152;28;20179;-66
2023/01/28 10:57:58;;;;;;;3.87;3.47;;;4.50;99.90;;;;;;5017837;28;20205;-64
2023/01/28 11:00:32;;;;;;;4.50;3.83;;;4.50;99.90;;;;;;5018429;28;20182;-62
2023/01/28 11:03:03;;;;;;;4.57;4.07;;;4.50;99.90;;;;;;5027470;28;20229;-65
2023/01/28 11:05:30;;;;;;;4.33;3.90;;;4.50;99.90;;;;;;5024662;28;20285;-68
2023/01/28 11:08:18;;;;;;;4.47;4.07;;;4.50;99.90;;;;;;4998938;28;20171;-67
2023/01/28 11:10:45;;;;;;;4.90;4.07;;;4.50;99.90;;;;;;5006500;28;20202;-67
2023/01/28 11:13:25;;;;;;;4.63;3.87;;;4.50;99.90;;;;;;5009134;28;20245;-65
2023/01/28 11:16:04;;;;;;;5.10;4.60;;;4.50;99.90;;;;;;5009905;28;20234;-67
2023/01/28 11:18:35;;;;;;;5.27;4.70;;;4.50;99.90;;;;;;5010762;28;20196;-66
2023/01/28 11:21:03;;;;;;;5.87;4.73;;;4.40;99.90;;;;;;5008139;28;20179;-66
2023/01/28 11:23:50;;;;;;;4.80;4.30;;;4.40;99.90;;;;;;5003415;28;20539;-65
2023/01/28 11:26:21;;;;;;;4.47;4.03;;;4.30;99.90;;;;;;5003158;28;20209;-66
2023/01/28 11:28:47;;;;;;;5.00;4.40;;;4.30;99.90;;;;;;5009628;28;20168;-67
2023/01/28 11:31:15;;;;;;;4.87;4.40;;;4.30;99.90;;;;;;5008045;28;20241;-66
2023/01/28 11:33:59;;;;;;;4.37;3.97;;;4.30;99.90;;;;;;5006504;28;20195;-65
2023/01/28 11:36:27;;;;;;;4.57;3.90;;;4.30;99.90;;;;;;5013608;28;20183;-65
2023/01/28 11:38:59;;;;;;;4.80;4.27;;;4.30;99.90;;;;;;5011171;28;20190;-66
2023/01/28 11:41:28;;;;;;;4.13;3.60;;;4.40;99.90;;;;;;5013362;28;20233;-66
2023/01/28 11:43:56;;;;;;;4.20;3.80;;;4.40;99.90;;;;;;5013280;28;20178;-64
2023/01/28 11:46:59;;;;;;;5.27;4.10;;;4.40;99.90;;;;;;5015397;28;20301;-67
2023/01/28 11:49:33;;;;;;;4.87;4.37;;;4.40;99.90;;;;;;5006936;28;20174;-66
2023/01/28 11:52:05;;;;;;;4.17;3.67;;;4.40;99.90;;;;;;5013020;28;20182;-66
2023/01/28 11:54:54;;;;;;;4.47;4.07;;;4.40;99.90;;;;;;5009821;28;20257;-64
2023/01/28 11:57:36;;;;;;;3.80;3.50;;;4.40;99.90;;;;;;5008607;28;20724;-65
2023/01/28 12:00:18;;;;;;;4.10;3.70;;;4.40;99.90;;;;;;5003897;28;20218;-62
2023/01/28 12:02:59;;;;;;;5.07;4.40;;;4.40;99.90;;;;;;5006223;28;20261;-66
2023/01/28 12:05:51;;;;;;;4.70;4.17;;;4.40;99.90;;;;;;5012112;28;20206;-66
2023/01/28 12:08:35;;;;;;;4.50;4.00;;;4.40;99.90;;;;;;4974180;28;20186;-65
2023/01/28 12:12:10;;;;;;;4.40;3.80;;;4.30;99.90;;;;;;5023394;28;20261;-67
2023/01/28 12:14:29;;;;;;;4.40;3.67;;;4.30;99.90;;;;;;5009751;28;20270;-67
2023/01/28 12:16:57;;;;;;;4.57;4.17;;;4.30;99.90;;;;;;5002995;28;20186;-65
2023/01/28 12:19:23;;;;;;;4.20;3.80;;;4.30;99.90;;;;;;4999895;28;20221;-66
2023/01/28 12:22:06;;;;;;;5.67;4.30;;;4.30;99.90;;;;;;5015545;28;20187;-65
2023/01/28 12:24:48;;;;;;;5.10;4.50;;;4.30;99.90;;;;;;5003208;28;20203;-58
2023/01/28 12:27:54;;;;;;;5.47;4.83;;;4.30;99.90;;;;;;5009410;28;20202;-67
2023/01/28 12:30:31;;;;;;;4.97;4.33;;;4.30;99.90;;;;;;5012292;28;20179;-66
2023/01/28 12:33:11;;;;;;;6.20;4.90;;;4.30;99.90;;;;;;5000286;28;20237;-66
2023/01/28 12:36:14;;;;;;;5.97;5.37;;;4.40;99.90;;;;;;5006497;28;20179;-67
2023/01/28 12:38:49;;;;;;;5.77;5.17;;;4.40;99.90;;;;;;5002807;28;20194;-65
2023/01/28 12:41:22;;;;;;;5.73;5.13;;;4.40;99.90;;;;;;5000774;28;20178;-67
2023/01/28 12:43:54;;;;;;;7.80;5.67;;;4.40;99.90;;;;;;5008972;28;20210;-68
2023/01/28 12:46:51;;;;;;;6.27;5.43;;;4.50;99.90;;;;;;5000704;28;20211;-67
2023/01/28 12:49:43;;;;;;;6.80;5.17;;;4.50;99.90;;;;;;4996235;28;20170;-66
2023/01/28 12:52:18;;;;;;;6.53;5.13;;;4.60;99.90;;;;;;5008601;28;20191;-67
2023/01/28 12:55:02;;;;;;;6.83;4.93;;;4.70;99.90;;;;;;4995716;28;20163;-66
2023/01/28 12:57:32;;;;;;;7.43;5.03;;;4.70;99.90;;;;;;5009880;28;20447;-69
2023/01/28 13:00:23;;;;;;;5.13;4.63;;;4.70;99.90;;;;;;5014762;28;20174;-66
2023/01/28 13:03:18;;;;;;;5.70;5.10;;;4.70;99.90;;;;;;5012220;28;20192;-67
2023/01/28 13:05:52;;;;;;;5.23;4.63;;;4.70;99.90;;;;;;5010985;28;20250;-67
2023/01/28 13:08:26;;;;;;;5.07;4.57;;;4.70;99.90;;;;;;4996387;28;20175;-65
2023/01/28 13:10:56;;;;;;;4.37;3.97;;;4.70;99.90;;;;;;5019769;28;20199;-68
2023/01/28 13:13:21;;;;;;;5.87;4.40;;;4.80;99.90;;;;;;5011552;28;20185;-66
2023/01/28 13:15:49;;;;;;;5.13;4.50;;;4.80;99.90;;;;;;5010817;28;20266;-68
2023/01/28 13:18:38;;;;;;;5.90;5.00;;;4.90;99.90;;;;;;5010570;28;20236;-59
2023/01/28 13:21:05;;;;;;;5.70;5.10;;;4.80;99.90;;;;;;5005719;28;20182;-60
2023/01/28 13:23:49;;;;;;;6.67;4.60;;;4.80;99.90;;;;;;5002288;28;20254;-63
2023/01/28 13:26:18;;;;;;;6.00;5.40;;;4.80;99.90;;;;;;5025670;28;20294;-67
2023/01/28 13:28:50;;;;;;;6.07;5.47;;;4.80;99.90;;;;;;5020917;28;20248;-67
2023/01/28 13:31:22;;;;;;;6.50;5.67;;;4.90;99.90;;;;;;5011291;28;20320;-67
2023/01/28 13:34:01;;;;;;;6.60;5.90;;;4.80;99.90;;;;;;5014258;28;20316;-67
2023/01/28 13:36:37;;;;;;;5.67;5.03;;;4.90;99.90;;;;;;5001535;28;20203;-66
2023/01/28 13:39:06;;;;;;;5.17;4.67;;;4.80;99.90;;;;;;5005733;28;20260;-66
2023/01/28 13:41:49;;;;;;;6.30;5.57;;;4.80;99.90;;;;;;5030479;28;20276;-67
2023/01/28 13:44:32;;;;;;;5.90;4.60;;;4.80;99.90;;;;;;4999905;28;20179;-66
2023/01/28 13:47:11;;;;;;;4.90;4.50;;;4.90;99.90;;;;;;5001481;28;20198;-66
2023/01/28 13:49:39;;;;;;;4.97;4.20;;;4.80;99.90;;;;;;5005180;28;20198;-64
2023/01/28 13:52:12;;;;;;;4.40;4.00;;;4.90;99.90;;;;;;5010809;28;20195;-65